createdAt,value
2022-08-07T00:00:26.715Z,11.05
2022-08-07T00:02:57.452Z,11.10
2022-08-07T00:05:25.191Z,10.93
2022-08-07T00:08:00.351Z,10.82
2022-08-07T00:10:31.202Z,11.38
2022-08-07T00:13:02.275Z,11.23
2022-08-07T00:15:46.769Z,11.25
2022-08-07T00:18:24.635Z,11.23
2022-08-07T00:21:08.115Z,12.00
2022-08-07T00:23:52.599Z,11.82
2022-08-07T00:26:59.358Z,11.05
2022-08-07T00:29:06.752Z,11.98
2022-08-07T00:31:38.208Z,11.13
2022-08-07T00:34:09.933Z,11.25
2022-08-07T00:36:43.142Z,11.85
2022-08-07T00:39:16.723Z,11.43
2022-08-07T00:42:01.796Z,12.07
2022-08-07T00:47:01.820Z,11.05
2022-08-07T00:50:17.130Z,11.30
2022-08-07T00:52:17.654Z,12.07
2022-08-07T00:54:53.948Z,11.02
2022-08-07T00:57:25.912Z,12.07
2022-08-07T00:59:54.491Z,11.75
2022-08-07T01:02:29.356Z,11.85
2022-08-07T01:04:59.169Z,11.35
2022-08-07T01:07:29.344Z,12.00
2022-08-07T01:10:06.897Z,11.73
2022-08-07T01:12:53.489Z,11.55
2022-08-07T01:15:36.136Z,12.05
2022-08-07T01:18:17.208Z,13.13
2022-08-07T01:20:59.358Z,12.07
2022-08-07T01:23:38.163Z,13.60
2022-08-07T01:26:13.213Z,12.73
2022-08-07T01:28:48.435Z,13.00
2022-08-07T01:31:27.915Z,13.82
2022-08-07T01:34:09.572Z,14.23
2022-08-07T01:36:41.132Z,13.02
2022-08-07T01:39:16.163Z,13.02
2022-08-07T01:42:01.656Z,14.32
2022-08-07T01:44:37.916Z,15.38
2022-08-07T01:48:18.071Z,14.93
2022-08-07T01:49:53.544Z,15.45
2022-08-07T01:52:25.706Z,14.52
2022-08-07T01:54:56.468Z,16.65
2022-08-07T01:57:30.506Z,16.60
2022-08-07T02:00:13.167Z,16.73
2022-08-07T02:03:12.059Z,15.50
2022-08-07T02:05:43.214Z,14.80
2022-08-07T02:08:23.841Z,15.25
2022-08-07T02:10:55.036Z,16.25
2022-08-07T02:13:57.944Z,14.65
2022-08-07T02:16:33.669Z,14.40
2022-08-07T02:20:07.075Z,14.18
2022-08-07T02:21:59.857Z,14.07
2022-08-07T02:24:30.506Z,14.85
2022-08-07T02:27:01.150Z,13.30
2022-08-07T02:29:30.728Z,13.48
2022-08-07T02:32:01.763Z,13.77
2022-08-07T02:34:32.617Z,12.77
2022-08-07T02:37:08.235Z,13.68
2022-08-07T02:39:43.048Z,13.38
2022-08-07T02:42:33.978Z,13.10
2022-08-07T02:45:07.588Z,13.27
2022-08-07T02:47:55.133Z,13.32
2022-08-07T02:50:26.618Z,11.85
2022-08-07T02:53:06.124Z,12.88
2022-08-07T02:56:03.891Z,12.93
2022-08-07T02:58:28.502Z,13.27
2022-08-07T03:01:04.188Z,12.52
2022-08-07T03:03:50.004Z,12.25
2022-08-07T03:06:26.065Z,12.30
2022-08-07T03:09:01.870Z,12.25
2022-08-07T03:11:32.694Z,11.43
2022-08-07T03:14:02.675Z,11.85
2022-08-07T03:16:35.140Z,11.38
2022-08-07T03:19:03.370Z,11.43
2022-08-07T03:21:33.767Z,11.77
2022-08-07T03:24:19.559Z,11.85
2022-08-07T03:26:58.252Z,11.48
2022-08-07T03:29:37.762Z,11.82
2022-08-07T03:32:13.410Z,11.77
2022-08-07T03:34:47.591Z,12.13
2022-08-07T03:37:37.328Z,11.40
2022-08-07T03:40:15.138Z,11.40
2022-08-07T03:42:44.879Z,11.27
2022-08-07T03:45:30.174Z,10.68
2022-08-07T03:48:01.728Z,11.38
2022-08-07T03:50:30.761Z,10.57
2022-08-07T03:53:00.186Z,12.07
2022-08-07T03:55:52.833Z,13.10
2022-08-07T03:59:05.399Z,12.10
2022-08-07T04:01:11.190Z,10.73
2022-08-07T04:03:49.799Z,11.00
2022-08-07T04:06:36.095Z,10.40
2022-08-07T04:09:15.148Z,9.35
2022-08-07T04:12:25.746Z,9.63
2022-08-07T04:14:39.056Z,9.70
2022-08-07T04:17:21.281Z,9.32
2022-08-07T04:19:55.259Z,9.90
2022-08-07T04:22:29.479Z,9.50
2022-08-07T04:25:02.144Z,9.50
2022-08-07T04:27:35.684Z,9.60
2022-08-07T04:30:21.277Z,9.73
2022-08-07T04:33:15.589Z,8.98
2022-08-07T04:35:51.023Z,8.60
2022-08-07T04:38:22.321Z,9.20
2022-08-07T04:40:51.480Z,9.27
2022-08-07T04:44:09.922Z,9.45
2022-08-07T04:46:36.025Z,8.32
2022-08-07T04:49:29.269Z,8.25
2022-08-07T04:52:26.506Z,8.95
2022-08-07T04:55:14.933Z,8.85
2022-08-07T04:58:38.900Z,8.38
2022-08-07T05:01:30.819Z,8.63
2022-08-07T05:04:17.081Z,8.73
2022-08-07T05:06:53.285Z,8.50
2022-08-07T05:09:45.844Z,8.57
2022-08-07T05:12:30.577Z,8.43
2022-08-07T05:15:23.066Z,8.25
2022-08-07T05:18:08.742Z,8.43
2022-08-07T05:20:46.920Z,8.18
2022-08-07T05:26:15.569Z,7.53
2022-08-07T05:28:53.434Z,8.38
2022-08-07T05:31:34.728Z,8.52
2022-08-07T05:34:11.217Z,8.05
2022-08-07T05:36:48.829Z,7.60
2022-08-07T05:40:13.793Z,7.28
2022-08-07T05:42:34.333Z,6.90
2022-08-07T05:45:25.819Z,7.68
2022-08-07T05:48:02.562Z,7.50
2022-08-07T05:50:44.566Z,7.38
2022-08-07T05:54:12.731Z,7.22
2022-08-07T05:56:05.503Z,7.38
2022-08-07T05:58:39.165Z,6.85
2022-08-07T06:01:11.482Z,7.22
2022-08-07T06:03:57.101Z,7.05
2022-08-07T06:06:34.300Z,6.40
2022-08-07T06:09:05.621Z,6.97
2022-08-07T06:11:38.271Z,7.43
2022-08-07T06:14:11.988Z,6.82
2022-08-07T06:16:50.034Z,7.20
2022-08-07T06:19:47.979Z,7.28
2022-08-07T06:22:15.555Z,6.55
2022-08-07T06:24:56.850Z,6.65
2022-08-07T06:28:00.434Z,7.30
2022-08-07T06:30:36.195Z,6.55
2022-08-07T06:33:02.197Z,6.15
2022-08-07T06:35:45.893Z,6.47
2022-08-07T06:38:19.848Z,7.25
2022-08-07T06:40:53.277Z,6.72
2022-08-07T06:43:25.106Z,6.65
2022-08-07T06:46:12.314Z,6.15
2022-08-07T06:48:42.081Z,6.25
2022-08-07T06:51:24.569Z,6.63
2022-08-07T06:55:30.027Z,6.22
2022-08-07T06:56:52.292Z,7.10
2022-08-07T07:00:12.237Z,6.10
2022-08-07T07:02:48.086Z,6.63
2022-08-07T07:05:13.794Z,6.65
2022-08-07T07:08:07.217Z,7.53
2022-08-07T07:10:37.009Z,6.38
2022-08-07T07:13:40.654Z,6.40
2022-08-07T07:16:27.186Z,6.45
2022-08-07T07:19:04.103Z,7.53
2022-08-07T07:22:05.088Z,8.00
2022-08-07T07:24:30.460Z,8.07
2022-08-07T07:27:03.245Z,8.20
2022-08-07T07:29:56.880Z,8.48
2022-08-07T07:32:25.684Z,8.13
2022-08-07T07:34:59.633Z,7.70
2022-08-07T07:37:49.529Z,7.38
2022-08-07T07:40:19.039Z,6.63
2022-08-07T07:42:53.798Z,6.90
2022-08-07T07:46:38.022Z,5.13
2022-08-07T07:48:35.063Z,4.68
2022-08-07T07:51:08.077Z,5.40
2022-08-07T07:53:52.155Z,5.80
2022-08-07T07:56:30.409Z,5.82
2022-08-07T07:59:02.915Z,6.40
2022-08-07T08:02:01.888Z,5.57
2022-08-07T08:04:25.913Z,5.85
2022-08-07T08:06:55.294Z,5.05
2022-08-07T08:09:29.113Z,4.90
2022-08-07T08:12:02.179Z,5.00
2022-08-07T08:14:36.464Z,3.85
2022-08-07T08:17:55.676Z,3.70
2022-08-07T08:20:19.532Z,4.05
2022-08-07T08:23:14.252Z,4.90
2022-08-07T08:26:06.918Z,4.47
2022-08-07T08:28:44.787Z,4.57
2022-08-07T08:31:22.752Z,4.53
2022-08-07T08:34:06.900Z,4.57
2022-08-07T08:36:37.330Z,5.07
2022-08-07T08:39:09.135Z,5.53
2022-08-07T08:41:58.708Z,5.72
2022-08-07T08:44:44.799Z,5.75
2022-08-07T08:47:56.836Z,5.72
2022-08-07T08:50:39.322Z,5.30
2022-08-07T08:53:29.414Z,5.75
2022-08-07T08:56:06.993Z,5.00
2022-08-07T08:58:54.865Z,5.75
2022-08-07T09:01:59.734Z,5.55
2022-08-07T09:04:41.551Z,5.15
2022-08-07T09:07:46.454Z,5.60
2022-08-07T09:10:47.105Z,6.28
2022-08-07T09:13:37.557Z,6.00
2022-08-07T09:16:30.614Z,6.22
2022-08-07T09:19:51.419Z,6.43
2022-08-07T09:24:54.842Z,6.30
2022-08-07T09:25:54.265Z,6.95
2022-08-07T09:30:04.693Z,5.95
2022-08-07T09:31:53.910Z,5.63
2022-08-07T09:34:27.879Z,6.32
2022-08-07T09:37:03.638Z,6.93
2022-08-07T09:39:57.868Z,6.18
2022-08-07T09:42:51.642Z,6.40
2022-08-07T09:47:51.359Z,6.00
2022-08-07T09:48:43.914Z,6.63
2022-08-07T09:52:16.639Z,5.70
2022-08-07T09:54:41.394Z,6.43
2022-08-07T09:57:31.677Z,5.95
2022-08-07T10:00:14.483Z,6.40
2022-08-07T10:02:55.127Z,5.53
2022-08-07T10:05:29.718Z,6.70
2022-08-07T10:08:32.437Z,6.43
2022-08-07T10:12:01.635Z,8.57
2022-08-07T10:14:30.337Z,8.32
2022-08-07T10:17:23.196Z,7.35
2022-08-07T10:20:04.998Z,8.27
2022-08-07T10:22:33.557Z,8.10
2022-08-07T10:25:10.881Z,7.50
2022-08-07T10:27:59.829Z,5.50
2022-08-07T10:31:15.123Z,6.07
2022-08-07T10:34:17.960Z,4.53
2022-08-07T10:37:10.211Z,4.45
2022-08-07T10:40:18.241Z,4.53
2022-08-07T10:43:15.418Z,4.60
2022-08-07T10:45:58.198Z,5.00
2022-08-07T10:48:48.905Z,4.65
2022-08-07T10:51:57.651Z,5.30
2022-08-07T10:54:13.402Z,4.70
2022-08-07T10:57:03.357Z,4.38
2022-08-07T10:59:53.152Z,4.57
2022-08-07T11:02:33.390Z,4.50
2022-08-07T11:05:44.929Z,4.70
2022-08-07T11:08:20.906Z,4.65
2022-08-07T11:11:03.870Z,4.97
2022-08-07T11:14:42.166Z,4.80
2022-08-07T11:16:59.405Z,4.63
2022-08-07T11:19:58.215Z,4.20
2022-08-07T11:22:43.985Z,4.10
2022-08-07T11:25:25.373Z,4.50
2022-08-07T11:28:27.196Z,4.50
2022-08-07T11:31:11.481Z,4.55
2022-08-07T11:33:58.749Z,4.40
2022-08-07T11:36:49.804Z,4.40
2022-08-07T11:40:00.303Z,4.38
2022-08-07T11:43:08.285Z,5.20
2022-08-07T11:45:49.842Z,5.82
2022-08-07T11:48:29.755Z,5.78
2022-08-07T11:51:40.874Z,5.40
2022-08-07T11:54:15.700Z,5.53
2022-08-07T11:57:01.738Z,5.13
2022-08-07T12:00:12.270Z,5.43
2022-08-07T12:03:42.216Z,5.05
2022-08-07T12:06:39.774Z,5.22
2022-08-07T12:09:33.289Z,5.22
2022-08-07T12:12:12.006Z,5.88
2022-08-07T12:15:05.430Z,5.45
2022-08-07T12:18:13.612Z,5.05
2022-08-07T12:21:07.427Z,5.38
2022-08-07T12:24:05.411Z,6.95
2022-08-07T12:27:14.910Z,6.28
2022-08-07T12:29:54.598Z,5.80
2022-08-07T12:32:52.216Z,5.50
2022-08-07T12:35:21.032Z,5.63
2022-08-07T12:38:09.060Z,5.30
2022-08-07T12:40:48.927Z,5.22
2022-08-07T12:44:03.889Z,5.85
2022-08-07T12:46:37.054Z,6.15
2022-08-07T12:49:39.472Z,5.00
2022-08-07T12:52:19.235Z,5.30
2022-08-07T12:55:40.623Z,4.97
2022-08-07T12:58:12.939Z,4.80
2022-08-07T13:00:54.720Z,4.95
2022-08-07T13:04:05.455Z,6.20
2022-08-07T13:07:01.315Z,5.40
2022-08-07T13:10:19.441Z,5.40
2022-08-07T13:12:50.556Z,5.75
2022-08-07T13:15:35.984Z,5.57
2022-08-07T13:18:51.694Z,5.00
2022-08-07T13:21:50.476Z,4.80
2022-08-07T13:24:31.217Z,4.90
2022-08-07T13:27:10.604Z,4.47
2022-08-07T13:30:04.211Z,4.65
2022-08-07T13:32:55.935Z,3.65
2022-08-07T13:35:24.479Z,3.95
2022-08-07T13:38:24.732Z,4.00
2022-08-07T13:41:31.255Z,3.80
2022-08-07T13:44:02.334Z,3.83
2022-08-07T13:46:38.816Z,4.50
2022-08-07T13:50:35.435Z,3.88
2022-08-07T13:52:32.481Z,4.53
2022-08-07T13:54:57.691Z,4.90
2022-08-07T13:57:38.152Z,5.63
2022-08-07T14:00:13.437Z,5.07
2022-08-07T14:02:58.894Z,5.10
2022-08-07T14:05:37.472Z,5.43
2022-08-07T14:08:08.868Z,4.95
2022-08-07T14:10:43.527Z,4.95
2022-08-07T14:13:16.685Z,5.25
2022-08-07T14:15:56.938Z,5.20
2022-08-07T14:18:32.812Z,5.38
2022-08-07T14:22:02.097Z,5.22
2022-08-07T14:24:26.972Z,5.15
2022-08-07T14:27:01.087Z,4.80
2022-08-07T14:30:07.745Z,4.72
2022-08-07T14:32:45.709Z,5.20
2022-08-07T14:35:43.246Z,4.35
2022-08-07T14:38:26.094Z,4.72
2022-08-07T14:41:03.883Z,3.88
2022-08-07T14:43:57.782Z,4.40
2022-08-07T14:46:30.551Z,4.63
2022-08-07T14:49:55.991Z,4.88
2022-08-07T14:52:04.929Z,4.25
2022-08-07T14:54:42.042Z,4.90
2022-08-07T14:57:19.082Z,4.78
2022-08-07T15:00:06.126Z,4.05
2022-08-07T15:02:37.380Z,4.65
2022-08-07T15:05:20.596Z,4.28
2022-08-07T15:07:52.733Z,4.80
2022-08-07T15:10:26.447Z,4.60
2022-08-07T15:13:01.189Z,4.30
2022-08-07T15:15:43.168Z,3.97
2022-08-07T15:18:33.836Z,4.13
2022-08-07T15:21:44.022Z,3.92
2022-08-07T15:25:13.546Z,4.00
2022-08-07T15:26:58.731Z,3.60
2022-08-07T15:30:09.385Z,4.13
2022-08-07T15:32:39.699Z,4.10
2022-08-07T15:35:18.336Z,4.13
2022-08-07T15:38:30.071Z,3.60
2022-08-07T15:41:00.391Z,3.72
2022-08-07T15:43:55.988Z,3.80
2022-08-07T15:46:31.542Z,3.58
2022-08-07T15:54:34.668Z,3.70
2022-08-07T15:57:10.788Z,3.45
2022-08-07T15:59:59.357Z,3.28
2022-08-07T16:02:30.362Z,3.47
2022-08-07T16:05:01.862Z,3.45
2022-08-07T16:08:32.821Z,3.53
2022-08-07T16:10:23.165Z,4.00
2022-08-07T16:13:17.587Z,3.78
2022-08-07T16:16:48.784Z,4.22
2022-08-07T16:19:10.927Z,4.38
2022-08-07T16:22:03.146Z,3.70
2022-08-07T16:25:00.145Z,3.33
2022-08-07T16:27:39.923Z,3.78
2022-08-07T16:30:30.885Z,3.90
2022-08-07T16:34:02.519Z,3.63
2022-08-07T16:37:02.958Z,3.95
2022-08-07T16:39:52.537Z,3.90
2022-08-07T16:42:45.113Z,3.85
2022-08-07T16:46:21.348Z,3.70
2022-08-07T16:48:53.664Z,3.55
2022-08-07T16:51:54.517Z,3.42
2022-08-07T16:57:15.465Z,3.78
2022-08-07T17:00:01.711Z,3.78
2022-08-07T17:02:51.414Z,4.28
2022-08-07T17:06:19.133Z,5.60
2022-08-07T17:09:14.284Z,5.82
2022-08-07T17:12:01.940Z,5.30
2022-08-07T17:15:20.317Z,5.50
2022-08-07T17:17:47.924Z,5.60
2022-08-07T17:20:41.999Z,4.80
2022-08-07T17:23:32.417Z,6.25
2022-08-07T17:26:23.253Z,4.95
2022-08-07T17:29:09.694Z,4.68
2022-08-07T17:32:30.463Z,4.40
2022-08-07T17:35:49.748Z,4.95
2022-08-07T17:38:33.621Z,3.70
2022-08-07T17:42:03.551Z,4.38
2022-08-07T17:44:34.037Z,4.05
2022-08-07T17:47:38.025Z,4.55
2022-08-07T17:50:19.482Z,4.80
2022-08-07T17:52:55.365Z,4.60
2022-08-07T17:55:54.765Z,4.50
2022-08-07T17:59:09.067Z,4.90
2022-08-07T18:01:56.706Z,4.97
2022-08-07T18:04:34.873Z,4.82
2022-08-07T18:07:22.672Z,5.00
2022-08-07T18:10:29.033Z,5.45
2022-08-07T18:13:17.699Z,4.70
2022-08-07T18:16:05.205Z,5.00
2022-08-07T18:21:00.754Z,4.78
2022-08-07T18:21:55.183Z,5.32
2022-08-07T18:24:42.432Z,5.35
2022-08-07T18:27:38.392Z,5.18
2022-08-07T18:30:32.490Z,4.72
2022-08-07T18:33:10.572Z,5.13
2022-08-07T18:35:51.642Z,4.90
2022-08-07T18:38:55.035Z,4.97
2022-08-07T18:42:04.133Z,4.75
2022-08-07T18:45:43.854Z,4.53
2022-08-07T18:48:02.538Z,4.32
2022-08-07T18:50:47.558Z,4.80
2022-08-07T18:53:55.392Z,5.43
2022-08-07T18:56:30.647Z,5.53
2022-08-07T18:59:47.609Z,5.18
2022-08-07T19:02:34.169Z,5.60
2022-08-07T19:05:15.919Z,5.20
2022-08-07T19:07:52.883Z,5.20
2022-08-07T19:10:31.881Z,5.30
2022-08-07T19:13:37.232Z,5.45
2022-08-07T19:16:42.874Z,5.63
2022-08-07T19:19:32.739Z,6.80
2022-08-07T19:22:11.191Z,9.13
2022-08-07T19:24:50.227Z,7.95
2022-08-07T19:28:58.666Z,6.88
2022-08-07T19:30:57.842Z,8.45
2022-08-07T19:33:13.239Z,7.60
2022-08-07T19:35:46.731Z,7.65
2022-08-07T19:38:17.818Z,8.60
2022-08-07T19:40:50.590Z,7.32
2022-08-07T19:43:48.581Z,7.05
2022-08-07T19:46:26.864Z,8.23
2022-08-07T19:49:07.470Z,7.78
2022-08-07T19:51:53.232Z,7.05
2022-08-07T19:54:34.343Z,7.00
2022-08-07T19:58:01.299Z,6.47
2022-08-07T20:00:10.417Z,8.43
2022-08-07T20:02:51.517Z,8.07
2022-08-07T20:06:00.365Z,7.30
2022-08-07T20:08:30.484Z,7.30
2022-08-07T20:11:04.027Z,6.93
2022-08-07T20:13:47.673Z,7.13
2022-08-07T20:16:35.200Z,7.47
2022-08-07T20:19:10.905Z,21.58
2022-08-07T20:21:46.842Z,10.60
2022-08-07T20:24:21.226Z,9.27
2022-08-07T20:26:54.580Z,7.40
2022-08-07T20:29:47.751Z,8.18
2022-08-07T20:32:39.673Z,7.80
2022-08-07T20:35:15.901Z,8.10
2022-08-07T20:37:58.819Z,8.50
2022-08-07T20:40:33.305Z,8.43
2022-08-07T20:43:09.397Z,8.95
2022-08-07T20:46:28.620Z,9.85
2022-08-07T20:48:37.283Z,9.73
2022-08-07T20:51:09.263Z,8.73
2022-08-07T20:54:02.834Z,9.15
2022-08-07T20:56:30.733Z,9.73
2022-08-07T20:59:06.084Z,9.25
2022-08-07T21:01:58.120Z,7.75
2022-08-07T21:04:31.986Z,8.40
2022-08-07T21:07:04.039Z,8.10
2022-08-07T21:09:52.515Z,9.00
2022-08-07T21:12:31.746Z,8.65
2022-08-07T21:15:01.224Z,8.85
2022-08-07T21:18:28.104Z,8.00
2022-08-07T21:20:29.612Z,8.15
2022-08-07T21:23:08.071Z,8.45
2022-08-07T21:25:58.440Z,8.57
2022-08-07T21:28:48.805Z,9.38
2022-08-07T21:32:47.114Z,8.80
2022-08-07T21:35:11.205Z,8.05
2022-08-07T21:37:59.155Z,7.78
2022-08-07T21:40:50.322Z,9.00
2022-08-07T21:43:23.441Z,8.38
2022-08-07T21:46:24.746Z,8.27
2022-08-07T21:49:17.860Z,7.95
2022-08-07T21:51:54.828Z,7.15
2022-08-07T21:54:52.310Z,7.47
2022-08-07T21:57:44.888Z,7.85
2022-08-07T22:00:25.026Z,8.13
2022-08-07T22:03:31.224Z,7.80
2022-08-07T22:06:03.982Z,10.55
2022-08-07T22:08:39.399Z,11.23
2022-08-07T22:11:08.517Z,11.75
2022-08-07T22:13:51.882Z,12.85
2022-08-07T22:16:56.157Z,13.65
2022-08-07T22:19:29.929Z,13.73
2022-08-07T22:22:29.914Z,12.77
2022-08-07T22:25:08.153Z,13.25
2022-08-07T22:28:20.215Z,13.65
2022-08-07T22:30:40.468Z,14.57
2022-08-07T22:33:12.553Z,13.55
2022-08-07T22:36:11.967Z,14.25
2022-08-07T22:39:10.410Z,14.43
2022-08-07T22:42:03.797Z,14.65
2022-08-07T22:44:56.947Z,13.93
2022-08-07T22:47:49.407Z,14.68
2022-08-07T22:50:37.984Z,12.82
2022-08-07T22:54:06.480Z,13.98
2022-08-07T22:56:38.999Z,13.52
2022-08-07T22:59:50.852Z,12.65
2022-08-07T23:02:21.694Z,12.70
2022-08-07T23:06:08.981Z,11.63
2022-08-07T23:08:24.548Z,11.80
2022-08-07T23:11:22.547Z,10.27
2022-08-07T23:14:16.039Z,10.75
2022-08-07T23:16:55.336Z,11.13
2022-08-07T23:20:16.826Z,10.57
2022-08-07T23:22:56.919Z,10.48
2022-08-07T23:25:48.535Z,10.27
2022-08-07T23:28:29.152Z,10.20
2022-08-07T23:31:06.512Z,10.35
2022-08-07T23:34:36.359Z,10.27
2022-08-07T23:37:17.700Z,9.77
2022-08-07T23:40:30.091Z,9.88
2022-08-07T23:43:24.953Z,9.48
2022-08-07T23:46:23.523Z,9.82
2022-08-07T23:49:50.211Z,9.15
2022-08-07T23:52:58.832Z,9.05
2022-08-07T23:55:52.354Z,9.82
2022-08-07T23:58:51.675Z,9.80
